createdAt,value
2022-08-07T00:02:35.350Z,97954.53
2022-08-07T00:04:05.958Z,97953.06
2022-08-07T00:06:33.947Z,97954.31
2022-08-07T00:09:16.450Z,97961.88
2022-08-07T00:11:54.187Z,97954.53
2022-08-07T00:14:30.034Z,97949.94
2022-08-07T00:17:01.637Z,97958.94
2022-08-07T00:19:59.969Z,97972.09
2022-08-07T00:22:24.679Z,97963.88
2022-08-07T00:25:15.837Z,97955.38
2022-08-07T00:27:52.255Z,97962.03
2022-08-07T00:30:27.670Z,97968.78
2022-08-07T00:32:59.887Z,97972.19
2022-08-07T00:35:29.696Z,97967.56
2022-08-07T00:37:57.350Z,97963.50
2022-08-07T00:40:36.188Z,97968.63
2022-08-07T00:43:09.892Z,97976.75
2022-08-07T00:45:38.531Z,97979.94
2022-08-07T00:48:08.846Z,97980.09
2022-08-07T00:50:46.190Z,97981.06
2022-08-07T00:53:20.351Z,97987.78
2022-08-07T00:56:02.502Z,97985.19
2022-08-07T00:58:30.423Z,97981.44
2022-08-07T01:00:57.166Z,97978.63
2022-08-07T01:03:54.736Z,97976.09
2022-08-07T01:06:10.820Z,97979.63
2022-08-07T01:08:43.897Z,97976.03
2022-08-07T01:12:04.821Z,97972.25
2022-08-07T01:14:09.151Z,97971.38
2022-08-07T01:16:36.822Z,97974.50
2022-08-07T01:19:10.898Z,97973.28
2022-08-07T01:21:48.189Z,97970.41
2022-08-07T01:24:21.148Z,97975.59
2022-08-07T01:26:52.059Z,97974.88
2022-08-07T01:29:23.245Z,97965.81
2022-08-07T01:31:52.619Z,97974.81
2022-08-07T01:34:20.422Z,97967.59
2022-08-07T01:36:58.960Z,97975.69
2022-08-07T01:39:40.886Z,97974.25
2022-08-07T01:42:38.619Z,97973.00
2022-08-07T01:45:17.940Z,97969.47
2022-08-07T01:48:20.198Z,97964.53
2022-08-07T01:50:38.217Z,97970.88
2022-08-07T01:53:11.782Z,97965.47
2022-08-07T01:55:59.775Z,97967.56
2022-08-07T01:58:33.363Z,97964.97
2022-08-07T02:01:10.012Z,97964.53
2022-08-07T02:04:03.577Z,97974.72
2022-08-07T02:06:34.383Z,97967.56
2022-08-07T02:09:09.250Z,97970.91
2022-08-07T02:12:02.771Z,97972.59
2022-08-07T02:14:40.195Z,97972.59
2022-08-07T02:17:16.597Z,97966.28
2022-08-07T02:20:07.093Z,97965.38
2022-08-07T02:22:41.092Z,97968.72
2022-08-07T02:25:17.063Z,97968.75
2022-08-07T02:27:54.426Z,97972.06
2022-08-07T02:30:23.915Z,97965.28
2022-08-07T02:33:00.705Z,97956.25
2022-08-07T02:36:29.246Z,97952.34
2022-08-07T02:38:31.585Z,97955.53
2022-08-07T02:41:03.643Z,97956.25
2022-08-07T02:43:35.327Z,97950.41
2022-08-07T02:46:07.420Z,97954.50
2022-08-07T02:48:35.836Z,97944.81
2022-08-07T02:51:14.319Z,97941.72
2022-08-07T02:53:57.973Z,97934.81
2022-08-07T02:56:29.720Z,97939.31
2022-08-07T02:59:02.131Z,97939.69
2022-08-07T03:01:36.106Z,97936.91
2022-08-07T03:04:12.683Z,97936.41
2022-08-07T03:06:44.691Z,97940.53
2022-08-07T03:09:14.618Z,97938.59
2022-08-07T03:12:03.731Z,97936.25
2022-08-07T03:14:36.203Z,97929.66
2022-08-07T03:17:04.976Z,97935.53
2022-08-07T03:19:37.285Z,97936.81
2022-08-07T03:22:07.087Z,97937.28
2022-08-07T03:24:36.686Z,97942.16
2022-08-07T03:27:09.091Z,97936.06
2022-08-07T03:29:51.413Z,97936.94
2022-08-07T03:32:34.190Z,97934.69
2022-08-07T03:35:17.346Z,97931.00
2022-08-07T03:37:54.172Z,97937.00
2022-08-07T03:40:31.227Z,97935.13
2022-08-07T03:43:10.132Z,97930.69
2022-08-07T03:45:43.700Z,97936.44
2022-08-07T03:48:16.653Z,97940.44
2022-08-07T03:50:52.065Z,97946.84
2022-08-07T03:54:00.573Z,97940.06
2022-08-07T03:56:19.147Z,97949.53
2022-08-07T03:59:09.858Z,97951.91
2022-08-07T04:01:45.769Z,97943.88
2022-08-07T04:04:18.577Z,97950.22
2022-08-07T04:06:50.825Z,97938.50
2022-08-07T04:09:23.293Z,97939.13
2022-08-07T04:12:23.336Z,97938.81
2022-08-07T04:14:43.835Z,97940.84
2022-08-07T04:17:21.110Z,97940.28
2022-08-07T04:19:51.996Z,97938.41
2022-08-07T04:22:28.523Z,97939.78
2022-08-07T04:25:02.060Z,97934.41
2022-08-07T04:27:35.544Z,97938.13
2022-08-07T04:30:35.562Z,97929.47
2022-08-07T04:33:07.465Z,97932.09
2022-08-07T04:35:39.718Z,97940.91
2022-08-07T04:38:15.423Z,97943.91
2022-08-07T04:40:51.859Z,97949.66
2022-08-07T04:44:10.241Z,97949.53
2022-08-07T04:46:42.797Z,97949.50
2022-08-07T04:49:37.498Z,97945.78
2022-08-07T04:52:14.677Z,97947.03
2022-08-07T04:54:59.543Z,97943.59
2022-08-07T04:58:10.607Z,97955.41
2022-08-07T05:00:43.655Z,97946.66
2022-08-07T05:04:06.910Z,97954.66
2022-08-07T05:06:53.421Z,97950.50
2022-08-07T05:09:45.608Z,97951.66
2022-08-07T05:12:27.169Z,97956.63
2022-08-07T05:15:21.708Z,97967.34
2022-08-07T05:18:00.415Z,97956.84
2022-08-07T05:20:50.269Z,97960.94
2022-08-07T05:23:50.075Z,97966.50
2022-08-07T05:26:24.032Z,97966.09
2022-08-07T05:29:04.067Z,97969.44
2022-08-07T05:31:38.383Z,97962.25
2022-08-07T05:34:12.114Z,97964.34
2022-08-07T05:36:44.603Z,97972.75
2022-08-07T05:40:13.783Z,97981.56
2022-08-07T05:42:34.508Z,97963.09
2022-08-07T05:45:14.768Z,97970.28
2022-08-07T05:48:01.617Z,97970.03
2022-08-07T05:50:34.410Z,97971.13
2022-08-07T05:53:03.319Z,97980.00
2022-08-07T05:56:01.915Z,97982.91
2022-08-07T05:58:36.323Z,97982.91
2022-08-07T06:01:11.362Z,97980.63
2022-08-07T06:03:56.953Z,97981.66
2022-08-07T06:06:29.843Z,97980.41
2022-08-07T06:09:04.753Z,97986.53
2022-08-07T06:11:34.830Z,97977.91
2022-08-07T06:14:12.999Z,97983.34
2022-08-07T06:16:56.216Z,97981.88
2022-08-07T06:19:49.954Z,97989.22
2022-08-07T06:22:27.316Z,97986.72
2022-08-07T06:25:05.207Z,97989.22
2022-08-07T06:28:00.350Z,97987.78
2022-08-07T06:30:24.124Z,97994.91
2022-08-07T06:32:58.998Z,97994.22
2022-08-07T06:35:39.176Z,98003.69
2022-08-07T06:38:20.572Z,98000.88
2022-08-07T06:40:53.233Z,98004.63
2022-08-07T06:43:24.536Z,97998.56
2022-08-07T06:46:13.489Z,97998.41
2022-08-07T06:48:42.219Z,98002.03
2022-08-07T06:51:31.032Z,98003.03
2022-08-07T06:55:28.822Z,98006.31
2022-08-07T06:56:53.786Z,98004.69
2022-08-07T07:00:14.547Z,97996.06
2022-08-07T07:02:53.293Z,97992.25
2022-08-07T07:05:12.712Z,97997.06
2022-08-07T07:07:59.816Z,97999.44
2022-08-07T07:10:33.313Z,97992.06
2022-08-07T07:13:16.288Z,97997.22
2022-08-07T07:16:07.700Z,97993.56
2022-08-07T07:18:56.167Z,97994.34
2022-08-07T07:21:40.478Z,97986.81
2022-08-07T07:24:16.766Z,97974.69
2022-08-07T07:26:52.137Z,97975.88
2022-08-07T07:29:39.031Z,97983.44
2022-08-07T07:32:12.782Z,97980.97
2022-08-07T07:34:48.614Z,97970.81
2022-08-07T07:37:43.932Z,97979.22
2022-08-07T07:40:10.249Z,97971.56
2022-08-07T07:42:47.019Z,97970.59
2022-08-07T07:45:24.518Z,97969.16
2022-08-07T07:48:11.232Z,97976.06
2022-08-07T07:50:40.057Z,97967.06
2022-08-07T07:53:13.519Z,97974.47
2022-08-07T07:55:54.989Z,97974.31
2022-08-07T07:58:31.347Z,97975.06
2022-08-07T08:02:01.888Z,97964.63
2022-08-07T08:04:10.873Z,97976.75
2022-08-07T08:06:50.889Z,97968.97
2022-08-07T08:09:23.837Z,97966.09
2022-08-07T08:12:02.035Z,97960.22
2022-08-07T08:14:36.100Z,97968.13
2022-08-07T08:17:55.433Z,97959.81
2022-08-07T08:20:18.853Z,97960.09
2022-08-07T08:23:08.442Z,97967.06
2022-08-07T08:25:58.222Z,97962.03
2022-08-07T08:28:38.441Z,97963.63
2022-08-07T08:31:15.759Z,97963.09
2022-08-07T08:33:48.964Z,97959.84
2022-08-07T08:36:25.601Z,97961.06
2022-08-07T08:39:01.733Z,97960.91
2022-08-07T08:41:58.298Z,97964.09
2022-08-07T08:44:29.635Z,97958.91
2022-08-07T08:47:17.275Z,97949.22
2022-08-07T08:50:35.304Z,97950.56
2022-08-07T08:53:14.090Z,97951.66
2022-08-07T08:55:55.581Z,97943.19
2022-08-07T08:58:40.261Z,97942.59
2022-08-07T09:01:18.354Z,97948.28
2022-08-07T09:03:56.712Z,97953.03
2022-08-07T09:06:37.489Z,97948.47
2022-08-07T09:09:57.210Z,97945.16
2022-08-07T09:12:53.144Z,97945.88
2022-08-07T09:16:25.842Z,97943.69
2022-08-07T09:18:58.507Z,97943.44
2022-08-07T09:21:57.960Z,97937.56
2022-08-07T09:24:55.124Z,97947.41
2022-08-07T09:28:00.671Z,97938.03
2022-08-07T09:30:58.430Z,97932.47
2022-08-07T09:33:57.237Z,97931.34
2022-08-07T09:36:37.178Z,97925.50
2022-08-07T09:39:52.651Z,97926.59
2022-08-07T09:42:32.966Z,97915.63
2022-08-07T09:47:25.884Z,97917.34
2022-08-07T09:48:50.159Z,97919.97
2022-08-07T09:52:15.407Z,97918.91
2022-08-07T09:54:27.069Z,97916.59
2022-08-07T09:57:07.249Z,97913.00
2022-08-07T10:00:05.457Z,97907.91
2022-08-07T10:02:53.652Z,97907.69
2022-08-07T10:06:00.067Z,97897.72
2022-08-07T10:08:58.392Z,97903.75
2022-08-07T10:12:03.094Z,97884.66
2022-08-07T10:14:55.012Z,97891.06
2022-08-07T10:18:01.596Z,97893.97
2022-08-07T10:22:14.235Z,97886.66
2022-08-07T10:24:49.176Z,97889.34
2022-08-07T10:27:51.319Z,97879.63
2022-08-07T10:30:24.949Z,97870.81
2022-08-07T10:34:06.748Z,97868.81
2022-08-07T10:36:36.070Z,97873.75
2022-08-07T10:39:41.910Z,97871.94
2022-08-07T10:42:21.010Z,97867.69
2022-08-07T10:45:09.837Z,97858.31
2022-08-07T10:47:53.689Z,97860.50
2022-08-07T10:50:34.102Z,97849.94
2022-08-07T10:53:09.047Z,97863.56
2022-08-07T10:55:46.326Z,97852.22
2022-08-07T10:58:12.984Z,97851.06
2022-08-07T11:01:11.352Z,97851.34
2022-08-07T11:03:52.511Z,97847.13
2022-08-07T11:06:32.146Z,97854.28
2022-08-07T11:09:04.301Z,97858.34
2022-08-07T11:12:01.338Z,97855.22
2022-08-07T11:14:46.406Z,97854.22
2022-08-07T11:17:42.746Z,97848.22
2022-08-07T11:20:24.844Z,97844.34
2022-08-07T11:23:01.638Z,97836.75
2022-08-07T11:25:49.775Z,97845.56
2022-08-07T11:28:41.242Z,97835.63
2022-08-07T11:31:11.982Z,97831.25
2022-08-07T11:33:54.137Z,97834.03
2022-08-07T11:36:30.593Z,97832.81
2022-08-07T11:39:09.583Z,97834.06
2022-08-07T11:42:01.688Z,97823.72
2022-08-07T11:44:52.633Z,97816.06
2022-08-07T11:47:56.034Z,97824.50
2022-08-07T11:50:58.603Z,97817.59
2022-08-07T11:53:37.278Z,97818.84
2022-08-07T11:56:28.001Z,97817.34
2022-08-07T12:00:12.128Z,97811.47
2022-08-07T12:02:53.841Z,97805.91
2022-08-07T12:05:47.328Z,97810.81
2022-08-07T12:08:37.247Z,97803.88
2022-08-07T12:11:21.271Z,97799.03
2022-08-07T12:14:08.485Z,97792.94
2022-08-07T12:16:42.536Z,97807.50
2022-08-07T12:19:35.557Z,97795.03
2022-08-07T12:22:56.463Z,97793.16
2022-08-07T12:26:03.022Z,97799.31
2022-08-07T12:28:57.440Z,97793.06
2022-08-07T12:31:53.176Z,97800.25
2022-08-07T12:34:34.696Z,97787.41
2022-08-07T12:37:08.332Z,97794.88
2022-08-07T12:39:51.320Z,97787.69
2022-08-07T12:42:27.748Z,97788.69
2022-08-07T12:44:58.037Z,97782.06
2022-08-07T12:47:37.276Z,97783.63
2022-08-07T12:50:34.027Z,97789.03
2022-08-07T12:53:18.053Z,97785.88
2022-08-07T12:56:09.239Z,97788.41
2022-08-07T12:58:42.927Z,97785.34
2022-08-07T13:02:03.202Z,97788.19
2022-08-07T13:04:36.583Z,97788.19
2022-08-07T13:08:13.494Z,97786.31
2022-08-07T13:10:56.576Z,97786.38
2022-08-07T13:13:48.698Z,97780.97
2022-08-07T13:16:36.553Z,97781.53
2022-08-07T13:19:50.695Z,97786.56
2022-08-07T13:22:31.685Z,97781.25
2022-08-07T13:25:00.467Z,97791.56
2022-08-07T13:28:05.716Z,97789.69
2022-08-07T13:30:39.864Z,97787.44
2022-08-07T13:33:46.075Z,97779.97
2022-08-07T13:36:05.964Z,97777.47
2022-08-07T13:38:42.895Z,97776.25
2022-08-07T13:41:35.661Z,97770.19
2022-08-07T13:44:10.691Z,97774.84
2022-08-07T13:46:49.331Z,97767.28
2022-08-07T13:50:34.376Z,97761.06
2022-08-07T13:52:31.697Z,97758.69
2022-08-07T13:54:57.516Z,97762.16
2022-08-07T13:57:38.192Z,97760.63
2022-08-07T14:00:08.575Z,97753.25
2022-08-07T14:02:56.516Z,97756.56
2022-08-07T14:05:24.930Z,97748.44
2022-08-07T14:08:06.649Z,97757.59
2022-08-07T14:10:42.376Z,97755.94
2022-08-07T14:13:16.558Z,97748.47
2022-08-07T14:15:51.969Z,97742.41
2022-08-07T14:18:44.688Z,97743.16
2022-08-07T14:22:41.208Z,97742.03
2022-08-07T14:24:28.060Z,97738.59
2022-08-07T14:26:57.046Z,97741.91
2022-08-07T14:30:06.629Z,97737.41
2022-08-07T14:32:19.423Z,97737.00
2022-08-07T14:34:48.220Z,97732.31
2022-08-07T14:37:32.976Z,97738.25
2022-08-07T14:40:16.128Z,97731.38
2022-08-07T14:43:55.204Z,97736.97
2022-08-07T14:45:51.386Z,97737.78
2022-08-07T14:48:27.332Z,97729.59
2022-08-07T14:50:57.864Z,97721.84
2022-08-07T14:54:03.606Z,97724.13
2022-08-07T14:56:29.597Z,97721.50
2022-08-07T14:59:02.129Z,97715.94
2022-08-07T15:01:42.927Z,97713.59
2022-08-07T15:04:21.765Z,97716.84
2022-08-07T15:06:52.755Z,97714.31
2022-08-07T15:09:59.978Z,97717.22
2022-08-07T15:12:36.636Z,97711.56
2022-08-07T15:15:17.413Z,97728.19
2022-08-07T15:17:57.464Z,97723.06
2022-08-07T15:26:20.734Z,97712.16
2022-08-07T15:28:58.456Z,97713.03
2022-08-07T15:32:01.274Z,97718.56
2022-08-07T15:34:17.197Z,97719.81
2022-08-07T15:37:03.414Z,97726.59
2022-08-07T15:42:43.603Z,97714.81
2022-08-07T15:48:30.759Z,97716.72
2022-08-07T15:51:07.824Z,97722.25
2022-08-07T15:53:52.779Z,97712.47
2022-08-07T15:56:24.664Z,97708.34
2022-08-07T15:58:59.918Z,97717.00
2022-08-07T16:01:38.582Z,97715.09
2022-08-07T16:04:15.628Z,97714.41
2022-08-07T16:06:52.804Z,97713.06
2022-08-07T16:09:42.091Z,97716.31
2022-08-07T16:12:31.605Z,97716.47
2022-08-07T16:14:59.123Z,97705.06
2022-08-07T16:18:02.003Z,97704.06
2022-08-07T16:20:55.117Z,97703.66
2022-08-07T16:23:53.409Z,97699.78
2022-08-07T16:26:30.445Z,97708.66
2022-08-07T16:30:09.926Z,97708.13
2022-08-07T16:32:34.568Z,97703.31
2022-08-07T16:35:58.906Z,97718.53
2022-08-07T16:39:01.153Z,97707.50
2022-08-07T16:41:54.399Z,97701.84
2022-08-07T16:45:15.050Z,97704.59
2022-08-07T16:48:08.069Z,97706.38
2022-08-07T16:51:07.401Z,97707.91
2022-08-07T16:54:11.464Z,97702.78
2022-08-07T16:57:15.377Z,97709.47
2022-08-07T17:00:14.923Z,97717.00
2022-08-07T17:03:07.806Z,97713.88
2022-08-07T17:06:26.586Z,97719.38
2022-08-07T17:09:10.962Z,97734.63
2022-08-07T17:12:33.488Z,97728.59
2022-08-07T17:15:16.001Z,97725.28
2022-08-07T17:17:47.506Z,97728.34
2022-08-07T17:20:37.809Z,97725.59
2022-08-07T17:23:22.595Z,97727.34
2022-08-07T17:26:23.618Z,97728.72
2022-08-07T17:30:12.743Z,97724.22
2022-08-07T17:32:30.423Z,97729.09
2022-08-07T17:35:49.852Z,97737.78
2022-08-07T17:38:08.392Z,97745.00
2022-08-07T17:42:00.656Z,97739.84
2022-08-07T17:44:10.458Z,97738.84
2022-08-07T17:46:52.421Z,97746.28
2022-08-07T17:49:22.927Z,97758.84
2022-08-07T17:52:00.278Z,97759.06
2022-08-07T17:54:54.084Z,97754.91
2022-08-07T17:58:01.466Z,97762.31
2022-08-07T18:00:34.584Z,97766.06
2022-08-07T18:04:04.628Z,97776.97
2022-08-07T18:06:33.355Z,97768.75
2022-08-07T18:09:06.478Z,97779.00
2022-08-07T18:12:17.689Z,97781.63
2022-08-07T18:15:02.777Z,97771.84
2022-08-07T18:18:46.130Z,97782.09
2022-08-07T18:21:08.886Z,97775.75
2022-08-07T18:23:43.194Z,97777.91
2022-08-07T18:26:18.876Z,97783.16
2022-08-07T18:29:02.767Z,97788.78
2022-08-07T18:31:52.412Z,97781.00
2022-08-07T18:34:53.584Z,97778.72
2022-08-07T18:38:59.263Z,97781.13
2022-08-07T18:41:16.854Z,97789.63
2022-08-07T18:44:01.876Z,97787.47
2022-08-07T18:46:43.169Z,97788.66
2022-08-07T18:50:32.378Z,97790.50
2022-08-07T18:52:52.914Z,97791.25
2022-08-07T18:55:42.541Z,97800.03
2022-08-07T18:58:36.796Z,97808.69
2022-08-07T19:02:19.070Z,97805.34
2022-08-07T19:04:28.184Z,97802.50
2022-08-07T19:07:08.483Z,97815.88
2022-08-07T19:10:18.466Z,97809.56
2022-08-07T19:13:21.486Z,97816.13
2022-08-07T19:17:01.527Z,97815.97
2022-08-07T19:19:32.093Z,97817.63
2022-08-07T19:22:30.830Z,97816.16
2022-08-07T19:24:58.476Z,97828.53
2022-08-07T19:28:57.982Z,97834.69
2022-08-07T19:31:04.298Z,97844.13
2022-08-07T19:33:15.841Z,97845.78
2022-08-07T19:35:46.824Z,97845.03
2022-08-07T19:38:17.816Z,97848.69
2022-08-07T19:40:49.478Z,97849.28
2022-08-07T19:43:21.936Z,97856.16
2022-08-07T19:46:10.736Z,97862.59
2022-08-07T19:48:53.514Z,97864.84
2022-08-07T19:51:50.508Z,97868.06
2022-08-07T19:54:35.067Z,97868.50
2022-08-07T19:58:02.674Z,97873.56
2022-08-07T19:59:54.183Z,97868.06
2022-08-07T20:02:35.017Z,97862.09
2022-08-07T20:05:08.994Z,97866.81
2022-08-07T20:07:46.314Z,97868.19
2022-08-07T20:10:51.742Z,97874.34
2022-08-07T20:13:31.865Z,97866.06
2022-08-07T20:16:02.100Z,97881.38
2022-08-07T20:18:33.005Z,97875.84
2022-08-07T20:21:03.725Z,97881.34
2022-08-07T20:23:53.917Z,97880.66
2022-08-07T20:26:32.212Z,97869.31
2022-08-07T20:29:46.753Z,97887.72
2022-08-07T20:32:00.199Z,97886.84
2022-08-07T20:34:49.408Z,97880.72
2022-08-07T20:37:22.372Z,97888.94
2022-08-07T20:40:02.584Z,97886.56
2022-08-07T20:42:33.707Z,97887.34
2022-08-07T20:45:04.580Z,97896.91
2022-08-07T20:47:56.027Z,97898.09
2022-08-07T20:50:26.827Z,97891.56
2022-08-07T20:52:53.935Z,97893.03
2022-08-07T20:55:23.574Z,97887.56
2022-08-07T20:58:04.164Z,97887.53
2022-08-07T21:00:46.085Z,97895.09
2022-08-07T21:03:16.863Z,97899.75
2022-08-07T21:05:56.492Z,97903.06
2022-08-07T21:08:37.521Z,97897.09
2022-08-07T21:11:10.780Z,97895.88
2022-08-07T21:13:57.876Z,97898.44
2022-08-07T21:16:37.612Z,97895.94
2022-08-07T21:19:15.908Z,97898.84
2022-08-07T21:21:57.546Z,97892.91
2022-08-07T21:24:47.922Z,97901.84
2022-08-07T21:27:25.512Z,97897.63
2022-08-07T21:30:09.802Z,97898.47
2022-08-07T21:32:52.646Z,97902.13
2022-08-07T21:35:34.488Z,97898.94
2022-08-07T21:38:31.747Z,97893.94
2022-08-07T21:41:38.315Z,97901.06
2022-08-07T21:44:30.005Z,97888.69
2022-08-07T21:47:07.528Z,97894.41
2022-08-07T21:50:02.900Z,97899.88
2022-08-07T21:53:07.709Z,97893.50
2022-08-07T21:55:59.995Z,97899.88
2022-08-07T21:58:40.158Z,97896.50
2022-08-07T22:02:07.398Z,97899.88
2022-08-07T22:04:35.267Z,97891.91
2022-08-07T22:07:14.726Z,97891.25
2022-08-07T22:09:54.168Z,97893.16
2022-08-07T22:12:35.062Z,97886.63
2022-08-07T22:16:38.517Z,97881.34
2022-08-07T22:18:00.566Z,97881.75
2022-08-07T22:20:49.908Z,97880.78
2022-08-07T22:23:59.810Z,97880.94
2022-08-07T22:26:29.383Z,97872.56
2022-08-07T22:29:17.073Z,97874.34
2022-08-07T22:32:30.525Z,97877.03
2022-08-07T22:35:02.235Z,97876.19
2022-08-07T22:38:03.090Z,97876.56
2022-08-07T22:40:44.688Z,97877.88
2022-08-07T22:43:18.173Z,97869.41
2022-08-07T22:47:02.696Z,97868.63
2022-08-07T22:49:19.251Z,97861.31
2022-08-07T22:52:01.414Z,97859.38
2022-08-07T22:54:40.133Z,97859.41
2022-08-07T22:57:30.884Z,97860.97
2022-08-07T23:00:21.586Z,97862.09
2022-08-07T23:03:17.145Z,97858.13
2022-08-07T23:06:16.600Z,97852.25
2022-08-07T23:10:00.401Z,97854.28
2022-08-07T23:12:06.289Z,97856.75
2022-08-07T23:14:39.722Z,97842.41
2022-08-07T23:17:30.776Z,97838.84
2022-08-07T23:20:51.518Z,97835.00
2022-08-07T23:24:07.100Z,97843.91
2022-08-07T23:26:56.339Z,97842.88
2022-08-07T23:29:43.621Z,97848.69
2022-08-07T23:34:22.443Z,97841.78
2022-08-07T23:36:00.766Z,97831.59
2022-08-07T23:39:08.621Z,97834.53
2022-08-07T23:42:04.638Z,97826.56
2022-08-07T23:45:33.235Z,97832.69
2022-08-07T23:48:27.765Z,97830.69
2022-08-07T23:52:58.510Z,97825.75
2022-08-07T23:54:44.150Z,97826.59
2022-08-07T23:57:40.956Z,97831.19
